createdAt,value
2019-05-31T00:00:33.299Z,76.52
2019-05-31T00:02:59.408Z,76.71
2019-05-31T00:05:25.283Z,76.35
2019-05-31T00:07:52.400Z,76.66
2019-05-31T00:10:18.304Z,77.31
2019-05-31T00:12:44.086Z,77.52
2019-05-31T00:15:09.984Z,77.90
2019-05-31T00:17:35.787Z,77.75
2019-05-31T00:20:04.583Z,77.51
2019-05-31T00:22:30.382Z,77.27
2019-05-31T00:24:56.195Z,77.24
2019-05-31T00:27:22.116Z,77.61
2019-05-31T00:29:47.901Z,77.31
2019-05-31T00:32:17.031Z,77.70
2019-05-31T00:34:42.855Z,77.67
2019-05-31T00:37:08.670Z,77.66
2019-05-31T00:39:34.473Z,78.18
2019-05-31T00:42:01.386Z,78.33
2019-05-31T00:44:32.998Z,78.62
2019-05-31T00:46:55.311Z,78.95
2019-05-31T00:49:21.154Z,79.15
2019-05-31T00:51:47.099Z,79.15
2019-05-31T00:54:12.846Z,79.15
2019-05-31T00:56:41.723Z,79.42
2019-05-31T00:59:07.522Z,80.44
2019-05-31T01:01:33.325Z,80.95
2019-05-31T01:03:59.122Z,81.16
2019-05-31T01:06:25.202Z,81.69
2019-05-31T01:08:51.027Z,81.69
2019-05-31T01:11:16.841Z,81.56
2019-05-31T01:13:42.677Z,81.14
2019-05-31T01:16:08.462Z,81.63
2019-05-31T01:18:34.289Z,82.18
2019-05-31T01:21:02.950Z,82.78
2019-05-31T01:23:29.043Z,82.31
2019-05-31T01:25:57.618Z,82.08
2019-05-31T01:28:23.550Z,81.78
2019-05-31T01:30:52.373Z,82.27
2019-05-31T01:33:18.437Z,81.99
2019-05-31T01:35:44.245Z,81.92
2019-05-31T01:38:10.556Z,82.03
2019-05-31T01:40:36.759Z,82.00
2019-05-31T01:43:02.700Z,82.47
2019-05-31T01:45:28.729Z,82.84
2019-05-31T01:47:54.798Z,82.83
2019-05-31T01:50:20.613Z,82.63
2019-05-31T01:52:46.416Z,82.98
2019-05-31T01:55:12.440Z,82.99
2019-05-31T01:57:38.342Z,83.00
2019-05-31T02:00:06.737Z,82.84
2019-05-31T02:02:32.652Z,82.93
2019-05-31T02:04:58.462Z,83.48
2019-05-31T02:07:24.280Z,83.45
2019-05-31T02:09:50.369Z,83.25
2019-05-31T02:12:17.299Z,82.81
2019-05-31T02:14:43.227Z,82.40
2019-05-31T02:17:09.273Z,83.09
2019-05-31T02:19:35.094Z,83.07
2019-05-31T02:22:00.904Z,83.34
2019-05-31T02:24:26.712Z,83.44
2019-05-31T02:26:52.520Z,83.79
2019-05-31T02:29:18.324Z,84.07
2019-05-31T02:31:44.099Z,84.19
2019-05-31T02:34:10.508Z,84.18
2019-05-31T02:36:36.464Z,84.19
2019-05-31T02:39:07.023Z,84.19
2019-05-31T02:41:32.984Z,84.37
2019-05-31T02:43:59.096Z,85.04
2019-05-31T02:46:24.921Z,85.14
2019-05-31T02:48:50.729Z,85.66
2019-05-31T02:51:19.308Z,85.76
2019-05-31T02:53:45.554Z,85.56
2019-05-31T02:56:12.947Z,85.58
2019-05-31T02:58:41.963Z,85.57
2019-05-31T03:01:09.452Z,85.65
2019-05-31T03:03:36.171Z,85.35
2019-05-31T03:06:05.217Z,85.15
2019-05-31T03:08:31.498Z,85.11
2019-05-31T03:10:59.413Z,85.40
2019-05-31T03:13:31.280Z,85.38
2019-05-31T03:16:07.058Z,85.27
2019-05-31T03:18:28.419Z,85.27
2019-05-31T03:20:54.234Z,85.59
2019-05-31T03:23:22.823Z,85.41
2019-05-31T03:25:47.993Z,84.52
2019-05-31T03:28:17.017Z,84.70
2019-05-31T03:30:43.336Z,85.29
2019-05-31T03:33:09.409Z,85.36
2019-05-31T03:35:38.729Z,84.67
2019-05-31T03:38:03.441Z,84.54
2019-05-31T03:40:29.256Z,84.46
2019-05-31T03:42:55.066Z,84.94
2019-05-31T03:45:22.053Z,84.99
2019-05-31T03:47:48.964Z,85.20
2019-05-31T03:50:16.734Z,85.49
2019-05-31T03:52:43.011Z,85.63
2019-05-31T03:55:08.933Z,85.14
2019-05-31T03:57:34.950Z,85.62
2019-05-31T04:00:01.062Z,86.13
2019-05-31T04:02:32.637Z,86.43
2019-05-31T04:04:58.684Z,87.15
2019-05-31T04:07:24.519Z,87.61
2019-05-31T04:09:50.426Z,87.40
2019-05-31T04:12:17.769Z,87.13
2019-05-31T04:14:43.631Z,87.28
2019-05-31T04:17:09.461Z,87.36
2019-05-31T04:19:35.234Z,87.10
2019-05-31T04:22:01.076Z,86.88
2019-05-31T04:24:27.144Z,87.37
2019-05-31T04:26:52.945Z,87.72
2019-05-31T04:29:19.860Z,88.09
2019-05-31T04:31:46.035Z,87.86
2019-05-31T04:34:11.874Z,87.44
2019-05-31T04:36:37.666Z,86.72
2019-05-31T04:39:06.025Z,86.10
2019-05-31T04:41:31.872Z,85.58
2019-05-31T04:43:59.036Z,85.36
2019-05-31T04:46:26.681Z,85.36
2019-05-31T04:48:52.658Z,85.49
2019-05-31T04:51:20.230Z,86.19
2019-05-31T04:53:46.231Z,86.98
2019-05-31T04:56:12.311Z,86.85
2019-05-31T04:58:38.124Z,86.51
2019-05-31T05:01:04.192Z,85.74
2019-05-31T05:03:30.558Z,85.45
2019-05-31T05:05:56.448Z,85.76
2019-05-31T05:08:22.823Z,86.18
2019-05-31T05:10:48.680Z,86.85
2019-05-31T05:13:14.513Z,87.22
2019-05-31T05:15:40.413Z,87.55
2019-05-31T05:18:06.247Z,87.27
2019-05-31T05:20:32.066Z,87.62
2019-05-31T05:22:58.182Z,87.57
2019-05-31T05:25:25.133Z,87.04
2019-05-31T05:27:51.000Z,86.44
2019-05-31T05:30:17.576Z,86.27
2019-05-31T05:32:43.649Z,86.37
2019-05-31T05:35:09.449Z,86.79
2019-05-31T05:37:35.254Z,87.29
2019-05-31T05:40:01.339Z,86.96
2019-05-31T05:42:27.154Z,86.24
2019-05-31T05:44:52.975Z,86.58
2019-05-31T05:47:19.263Z,87.02
2019-05-31T05:49:45.142Z,86.93
2019-05-31T05:52:10.936Z,86.69
2019-05-31T05:54:36.755Z,86.63
2019-05-31T05:57:03.003Z,86.96
2019-05-31T05:59:29.504Z,86.31
2019-05-31T06:01:55.350Z,85.96
2019-05-31T06:04:21.734Z,85.51
2019-05-31T06:06:47.846Z,84.13
2019-05-31T06:09:13.636Z,83.34
2019-05-31T06:11:39.471Z,82.78
2019-05-31T06:14:05.250Z,82.94
2019-05-31T06:16:50.246Z,83.41
2019-05-31T06:18:59.043Z,83.67
2019-05-31T06:21:26.325Z,83.50
2019-05-31T06:23:53.698Z,83.59
2019-05-31T06:26:19.496Z,82.90
2019-05-31T06:28:45.562Z,82.92
2019-05-31T06:31:11.368Z,82.32
2019-05-31T06:33:37.223Z,81.94
2019-05-31T06:36:03.511Z,81.42
2019-05-31T06:38:37.060Z,80.55
2019-05-31T06:41:02.920Z,80.84
2019-05-31T06:43:33.584Z,80.58
2019-05-31T06:45:56.697Z,80.28
2019-05-31T06:48:22.502Z,80.94
2019-05-31T06:50:48.313Z,80.83
2019-05-31T06:53:14.149Z,80.79
2019-05-31T06:55:40.313Z,80.43
2019-05-31T06:58:06.142Z,80.67
2019-05-31T07:00:33.260Z,80.05
2019-05-31T07:02:59.637Z,79.89
2019-05-31T07:05:25.443Z,79.79
2019-05-31T07:07:51.331Z,78.69
2019-05-31T07:10:17.605Z,78.68
2019-05-31T07:12:46.728Z,78.15
2019-05-31T07:15:13.029Z,78.15
2019-05-31T07:17:54.463Z,77.40
2019-05-31T07:20:11.936Z,76.99
2019-05-31T07:22:38.947Z,76.23
2019-05-31T07:25:07.747Z,76.87
2019-05-31T07:27:33.563Z,76.55
2019-05-31T07:29:59.624Z,76.55
2019-05-31T07:32:31.781Z,75.32
2019-05-31T07:34:57.604Z,75.18
2019-05-31T07:37:31.878Z,74.20
2019-05-31T07:39:51.134Z,74.96
2019-05-31T07:42:16.984Z,74.96
2019-05-31T07:44:42.845Z,74.45
2019-05-31T07:47:08.944Z,74.18
2019-05-31T07:49:36.032Z,73.92
2019-05-31T07:52:01.895Z,72.54
2019-05-31T07:54:27.680Z,72.54
2019-05-31T07:56:53.768Z,73.17
2019-05-31T07:59:19.591Z,73.34
2019-05-31T08:01:45.686Z,72.71
2019-05-31T08:04:11.614Z,72.23
2019-05-31T08:06:38.747Z,71.90
2019-05-31T08:09:06.236Z,71.80
2019-05-31T08:11:33.242Z,70.36
2019-05-31T08:13:59.176Z,70.72
2019-05-31T08:16:25.334Z,69.96
2019-05-31T08:18:51.217Z,69.60
2019-05-31T08:21:17.157Z,67.93
2019-05-31T08:23:43.240Z,67.26
2019-05-31T08:26:25.278Z,67.07
2019-05-31T08:28:36.736Z,64.46
2019-05-31T08:31:02.913Z,65.62
2019-05-31T08:33:28.708Z,64.71
2019-05-31T08:35:54.490Z,63.41
2019-05-31T08:38:20.299Z,61.86
2019-05-31T08:40:46.114Z,61.50
2019-05-31T08:43:11.924Z,61.26
2019-05-31T08:45:37.811Z,61.92
2019-05-31T08:48:03.839Z,62.02
2019-05-31T08:50:29.659Z,63.23
2019-05-31T08:52:57.363Z,64.03
2019-05-31T08:55:23.224Z,61.87
2019-05-31T08:57:49.006Z,60.67
2019-05-31T09:00:15.429Z,60.85
2019-05-31T09:02:41.257Z,59.41
2019-05-31T09:05:07.489Z,59.77
2019-05-31T09:07:34.213Z,60.03
2019-05-31T09:10:00.121Z,58.83
2019-05-31T09:12:26.173Z,59.06
2019-05-31T09:14:57.675Z,59.69
2019-05-31T09:17:23.476Z,59.92
2019-05-31T09:19:58.685Z,60.62
2019-05-31T09:22:16.988Z,57.86
2019-05-31T09:24:42.796Z,57.93
2019-05-31T09:27:08.609Z,56.68
2019-05-31T09:29:51.653Z,58.51
2019-05-31T09:32:02.410Z,60.23
2019-05-31T09:34:28.497Z,59.39
2019-05-31T09:36:54.558Z,59.37
2019-05-31T09:39:20.333Z,59.71
2019-05-31T09:41:46.438Z,59.63
2019-05-31T09:44:12.228Z,57.33
2019-05-31T09:46:38.015Z,58.26
2019-05-31T09:49:04.107Z,58.81
2019-05-31T09:51:32.001Z,61.84
2019-05-31T09:53:57.712Z,61.02
2019-05-31T09:56:23.599Z,60.54
2019-05-31T09:58:49.435Z,58.71
2019-05-31T10:01:18.394Z,56.42
2019-05-31T10:03:47.111Z,56.09
2019-05-31T10:06:13.162Z,54.20
2019-05-31T10:08:41.918Z,54.32
2019-05-31T10:11:06.659Z,57.12
2019-05-31T10:13:33.598Z,57.58
2019-05-31T10:16:00.459Z,55.72
2019-05-31T10:18:26.270Z,54.40
2019-05-31T10:20:52.072Z,55.30
2019-05-31T10:23:31.936Z,57.06
2019-05-31T10:25:45.616Z,57.63
2019-05-31T10:28:11.402Z,59.03
2019-05-31T10:30:37.549Z,59.83
2019-05-31T10:33:03.367Z,56.72
2019-05-31T10:35:29.152Z,55.07
2019-05-31T10:37:54.963Z,53.51
2019-05-31T10:40:20.772Z,51.02
2019-05-31T10:42:46.546Z,52.75
2019-05-31T10:45:14.699Z,51.40
2019-05-31T10:47:42.130Z,49.14
2019-05-31T10:50:14.150Z,49.14
2019-05-31T10:52:42.623Z,49.97
2019-05-31T10:55:08.556Z,51.07
2019-05-31T10:57:34.379Z,49.89
2019-05-31T11:00:00.418Z,48.45
2019-05-31T11:02:26.224Z,49.11
2019-05-31T11:04:52.022Z,48.19
2019-05-31T11:07:18.103Z,45.68
2019-05-31T11:09:47.194Z,47.16
2019-05-31T11:12:13.010Z,47.74
2019-05-31T11:14:39.172Z,47.00
2019-05-31T11:17:05.030Z,45.01
2019-05-31T11:19:31.606Z,47.23
2019-05-31T11:21:57.405Z,47.62
2019-05-31T11:24:23.303Z,46.99
2019-05-31T11:26:49.629Z,49.85
2019-05-31T11:29:16.606Z,49.82
2019-05-31T11:31:42.696Z,49.63
2019-05-31T11:34:08.505Z,51.88
2019-05-31T11:36:34.430Z,51.89
2019-05-31T11:39:00.443Z,54.29
2019-05-31T11:41:26.539Z,52.79
2019-05-31T11:43:52.325Z,52.58
2019-05-31T11:46:18.177Z,56.55
2019-05-31T11:48:45.538Z,54.42
2019-05-31T11:51:28.066Z,51.90
2019-05-31T11:53:45.270Z,50.06
2019-05-31T11:56:06.776Z,51.43
2019-05-31T11:58:32.562Z,51.36
2019-05-31T12:00:58.377Z,54.29
2019-05-31T12:03:24.170Z,53.32
2019-05-31T12:05:49.999Z,51.13
2019-05-31T12:08:16.088Z,51.49
2019-05-31T12:10:42.658Z,49.30
2019-05-31T12:13:08.892Z,51.00
2019-05-31T12:15:34.744Z,50.29
2019-05-31T12:18:00.541Z,48.60
2019-05-31T12:20:26.591Z,48.21
2019-05-31T12:22:52.416Z,47.72
2019-05-31T12:25:18.854Z,45.59
2019-05-31T12:27:45.217Z,47.62
2019-05-31T12:30:21.390Z,47.70
2019-05-31T12:32:40.183Z,50.84
2019-05-31T12:35:06.123Z,48.99
2019-05-31T12:37:32.055Z,49.24
2019-05-31T12:39:57.833Z,50.44
2019-05-31T12:42:23.638Z,47.04
2019-05-31T12:44:49.440Z,47.23
2019-05-31T12:47:15.330Z,45.14
2019-05-31T12:49:42.248Z,46.52
2019-05-31T12:52:08.141Z,46.26
2019-05-31T12:54:33.970Z,43.24
2019-05-31T12:56:59.773Z,45.22
2019-05-31T12:59:25.618Z,43.00
2019-05-31T13:01:51.700Z,42.50
2019-05-31T13:04:17.778Z,44.28
2019-05-31T13:06:43.876Z,43.30
2019-05-31T13:09:09.671Z,43.11
2019-05-31T13:11:35.929Z,43.74
2019-05-31T13:14:01.773Z,41.85
2019-05-31T13:16:27.551Z,40.99
2019-05-31T13:18:54.105Z,39.37
2019-05-31T13:21:19.940Z,40.49
2019-05-31T13:23:46.279Z,39.54
2019-05-31T13:26:12.107Z,41.22
2019-05-31T13:28:38.071Z,40.92
2019-05-31T13:31:03.943Z,38.00
2019-05-31T13:33:30.027Z,41.64
2019-05-31T13:35:56.292Z,38.80
2019-05-31T13:38:22.865Z,39.06
2019-05-31T13:40:49.460Z,38.28
2019-05-31T13:43:15.388Z,38.75
2019-05-31T13:45:41.177Z,37.46
2019-05-31T13:48:09.988Z,37.49
2019-05-31T13:50:34.718Z,39.83
2019-05-31T13:53:00.561Z,40.93
2019-05-31T13:55:26.335Z,41.42
2019-05-31T13:57:52.995Z,41.29
2019-05-31T14:00:19.258Z,42.59
2019-05-31T14:02:45.332Z,43.42
2019-05-31T14:05:12.786Z,44.71
2019-05-31T14:07:38.911Z,46.04
2019-05-31T14:10:05.307Z,45.93
2019-05-31T14:12:31.104Z,46.46
2019-05-31T14:14:56.889Z,46.44
2019-05-31T14:17:22.963Z,46.79
2019-05-31T14:19:48.760Z,47.00
2019-05-31T14:22:14.593Z,47.42
2019-05-31T14:24:40.634Z,48.54
2019-05-31T14:27:06.451Z,48.36
2019-05-31T14:29:32.243Z,49.06
2019-05-31T14:32:02.403Z,49.67
2019-05-31T14:34:28.620Z,49.45
2019-05-31T14:36:54.436Z,49.93
2019-05-31T14:39:20.230Z,48.50
2019-05-31T14:41:46.334Z,47.62
2019-05-31T14:44:12.153Z,47.35
2019-05-31T14:46:37.979Z,48.01
2019-05-31T14:49:09.969Z,47.63
2019-05-31T14:51:31.607Z,44.79
2019-05-31T14:53:57.660Z,45.80
2019-05-31T14:56:23.477Z,46.46
2019-05-31T14:58:50.612Z,43.16
2019-05-31T15:01:16.481Z,43.99
2019-05-31T15:03:42.288Z,43.55
2019-05-31T15:06:08.344Z,43.22
2019-05-31T15:08:34.359Z,44.48
2019-05-31T15:11:02.884Z,43.55
2019-05-31T15:13:28.595Z,43.47
2019-05-31T15:15:54.685Z,44.27
2019-05-31T15:18:21.048Z,43.66
2019-05-31T15:20:46.868Z,44.43
2019-05-31T15:23:12.670Z,45.16
2019-05-31T15:25:38.733Z,45.58
2019-05-31T15:28:04.752Z,45.43
2019-05-31T15:30:43.836Z,45.12
2019-05-31T15:33:22.977Z,45.48
2019-05-31T15:35:55.634Z,45.58
2019-05-31T15:38:21.594Z,44.57
2019-05-31T15:40:51.212Z,46.40
2019-05-31T15:43:17.112Z,45.89
2019-05-31T15:45:42.967Z,47.65
2019-05-31T15:48:09.045Z,48.46
2019-05-31T15:50:34.833Z,48.42
2019-05-31T15:53:10.205Z,48.24
2019-05-31T15:55:28.873Z,48.10
2019-05-31T15:57:55.313Z,49.86
2019-05-31T16:00:36.071Z,47.63
2019-05-31T16:03:02.257Z,49.19
2019-05-31T16:05:28.082Z,49.77
2019-05-31T16:07:53.864Z,49.97
2019-05-31T16:10:19.775Z,49.72
2019-05-31T16:12:45.841Z,49.33
2019-05-31T16:15:12.023Z,48.65
2019-05-31T16:17:37.822Z,48.36
2019-05-31T16:20:05.478Z,47.58
2019-05-31T16:22:31.326Z,48.71
2019-05-31T16:24:57.413Z,48.80
2019-05-31T16:27:23.181Z,50.81
2019-05-31T16:29:49.230Z,50.94
2019-05-31T16:32:15.329Z,51.57
2019-05-31T16:34:41.131Z,51.65
2019-05-31T16:37:06.961Z,51.73
2019-05-31T16:39:32.989Z,51.60
2019-05-31T16:41:59.361Z,52.55
2019-05-31T16:44:25.484Z,50.07
2019-05-31T16:46:51.283Z,50.77
2019-05-31T16:49:17.368Z,53.83
2019-05-31T16:51:43.159Z,53.78
2019-05-31T16:54:22.844Z,50.45
2019-05-31T16:56:36.683Z,51.37
2019-05-31T16:59:03.404Z,50.77
2019-05-31T17:01:32.497Z,54.31
2019-05-31T17:03:58.313Z,54.89
2019-05-31T17:06:24.369Z,55.56
2019-05-31T17:08:50.188Z,53.90
2019-05-31T17:11:16.024Z,53.75
2019-05-31T17:13:41.838Z,55.17
2019-05-31T17:16:09.014Z,54.95
2019-05-31T17:18:35.352Z,55.05
2019-05-31T17:21:01.944Z,52.85
2019-05-31T17:23:27.869Z,50.17
2019-05-31T17:25:54.121Z,51.47
2019-05-31T17:28:20.303Z,52.29
2019-05-31T17:30:46.196Z,52.46
2019-05-31T17:33:12.121Z,51.62
2019-05-31T17:35:38.143Z,52.25
2019-05-31T17:38:05.447Z,52.81
2019-05-31T17:40:31.383Z,52.40
2019-05-31T17:42:57.169Z,51.65
2019-05-31T17:45:23.147Z,52.74
2019-05-31T17:47:48.913Z,53.12
2019-05-31T17:50:14.828Z,54.25
2019-05-31T17:52:40.908Z,54.23
2019-05-31T17:55:06.783Z,54.87
2019-05-31T17:57:43.362Z,54.46
2019-05-31T18:00:00.531Z,54.51
2019-05-31T18:02:26.316Z,55.15
2019-05-31T18:04:52.141Z,55.34
2019-05-31T18:07:17.937Z,55.54
2019-05-31T18:09:43.769Z,56.98
2019-05-31T18:12:10.650Z,56.75
2019-05-31T18:14:36.563Z,55.45
2019-05-31T18:17:02.730Z,56.07
2019-05-31T18:19:28.542Z,56.79
2019-05-31T18:21:57.627Z,56.89
2019-05-31T18:27:02.431Z,57.32
2019-05-31T18:29:28.491Z,58.21
2019-05-31T18:31:54.293Z,59.07
2019-05-31T18:34:20.092Z,59.45
2019-05-31T18:36:46.359Z,59.06
2019-05-31T18:39:12.287Z,59.30
2019-05-31T18:41:38.374Z,59.92
2019-05-31T18:44:04.325Z,60.37
2019-05-31T18:46:30.171Z,60.79
2019-05-31T18:48:55.956Z,60.18
2019-05-31T18:51:24.873Z,60.71
2019-05-31T18:53:50.629Z,61.08
2019-05-31T18:56:21.886Z,61.74
2019-05-31T18:58:47.726Z,61.67
2019-05-31T19:01:14.917Z,62.08
2019-05-31T19:03:40.951Z,62.24
2019-05-31T19:06:06.745Z,62.52
2019-05-31T19:08:32.596Z,62.33
2019-05-31T19:10:58.401Z,62.99
2019-05-31T19:13:27.407Z,63.03
2019-05-31T19:15:53.197Z,64.16
2019-05-31T19:18:22.050Z,64.29
2019-05-31T19:21:00.365Z,65.26
2019-05-31T19:23:15.920Z,66.19
2019-05-31T19:25:50.306Z,66.50
2019-05-31T19:28:15.815Z,66.70
2019-05-31T19:30:43.289Z,66.29
2019-05-31T19:33:09.760Z,66.61
2019-05-31T19:35:35.668Z,67.05
2019-05-31T19:38:01.699Z,67.74
2019-05-31T19:40:27.735Z,67.73
2019-05-31T19:42:53.559Z,68.02
2019-05-31T19:45:20.671Z,68.10
2019-05-31T19:47:46.564Z,67.91
2019-05-31T19:50:19.648Z,68.07
2019-05-31T19:52:43.887Z,68.33
2019-05-31T19:55:09.817Z,68.45
2019-05-31T19:57:35.870Z,68.72
2019-05-31T20:00:02.177Z,69.47
2019-05-31T20:02:28.194Z,70.32
2019-05-31T20:04:57.038Z,70.71
2019-05-31T20:07:23.737Z,70.51
2019-05-31T20:09:51.149Z,70.84
2019-05-31T20:12:19.625Z,71.50
2019-05-31T20:14:44.956Z,71.64
2019-05-31T20:17:11.620Z,71.41
2019-05-31T20:19:37.853Z,71.86
2019-05-31T20:22:03.714Z,71.50
2019-05-31T20:24:29.451Z,71.97
2019-05-31T20:26:58.288Z,72.18
2019-05-31T20:29:25.768Z,72.85
2019-05-31T20:31:52.345Z,73.40
2019-05-31T20:34:19.797Z,73.46
2019-05-31T20:36:45.869Z,73.77
2019-05-31T20:39:11.668Z,74.13
2019-05-31T20:41:42.949Z,74.37
2019-05-31T20:44:09.033Z,74.28
2019-05-31T20:46:36.208Z,74.52
2019-05-31T20:49:02.045Z,74.83
2019-05-31T20:51:31.137Z,74.79
2019-05-31T20:53:57.231Z,74.50
2019-05-31T20:56:23.946Z,75.38
2019-05-31T20:58:49.734Z,75.38
2019-05-31T21:01:15.552Z,75.37
2019-05-31T21:03:42.771Z,75.54
2019-05-31T21:06:08.594Z,75.92
2019-05-31T21:08:37.410Z,76.29
2019-05-31T21:11:03.248Z,76.18
2019-05-31T21:13:32.380Z,76.47
2019-05-31T21:15:58.200Z,76.54
2019-05-31T21:18:28.214Z,76.64
2019-05-31T21:20:54.361Z,76.83
2019-05-31T21:23:22.388Z,77.15
2019-05-31T21:25:48.267Z,77.00
2019-05-31T21:28:15.599Z,77.00
2019-05-31T21:30:41.417Z,77.52
2019-05-31T21:33:07.246Z,77.52
2019-05-31T21:35:33.870Z,77.47
2019-05-31T21:37:59.785Z,77.83
2019-05-31T21:40:29.103Z,77.84
2019-05-31T21:42:54.939Z,78.09
2019-05-31T21:45:23.505Z,78.50
2019-05-31T21:47:49.581Z,78.39
2019-05-31T21:50:20.292Z,78.39
2019-05-31T21:52:46.123Z,78.88
2019-05-31T21:55:12.429Z,78.88
2019-05-31T21:57:38.285Z,79.06
2019-05-31T22:00:13.833Z,79.06
2019-05-31T22:02:40.306Z,79.27
2019-05-31T22:05:06.323Z,79.27
2019-05-31T22:07:32.518Z,79.95
2019-05-31T22:09:58.351Z,79.82
2019-05-31T22:12:24.475Z,79.82
2019-05-31T22:14:50.297Z,80.42
2019-05-31T22:17:16.104Z,80.20
2019-05-31T22:19:41.927Z,80.48
2019-05-31T22:22:07.754Z,81.11
2019-05-31T22:24:34.681Z,81.09
2019-05-31T22:27:02.396Z,81.31
2019-05-31T22:29:28.879Z,81.31
2019-05-31T22:31:59.727Z,81.34
2019-05-31T22:34:25.520Z,81.34
2019-05-31T22:36:51.395Z,81.51
2019-05-31T22:39:17.159Z,81.87
2019-05-31T22:41:48.470Z,81.57
2019-05-31T22:44:14.572Z,81.73
2019-05-31T22:46:41.076Z,81.82
2019-05-31T22:49:07.290Z,82.17
2019-05-31T22:51:33.374Z,82.13
2019-05-31T22:53:59.203Z,82.18
2019-05-31T22:56:25.249Z,82.68
2019-05-31T22:58:53.825Z,82.53
2019-05-31T23:01:19.640Z,82.53
2019-05-31T23:03:48.243Z,82.47
2019-05-31T23:06:14.020Z,83.08
2019-05-31T23:08:43.451Z,83.04
2019-05-31T23:11:09.255Z,83.38
2019-05-31T23:13:38.413Z,83.51
2019-05-31T23:16:04.339Z,83.27
2019-05-31T23:18:33.223Z,83.68
2019-05-31T23:20:59.044Z,83.67
2019-05-31T23:23:25.126Z,84.03
2019-05-31T23:25:50.951Z,84.22
2019-05-31T23:28:16.755Z,84.19
2019-05-31T23:30:44.116Z,84.09
2019-05-31T23:33:09.985Z,83.88
2019-05-31T23:35:39.467Z,83.87
2019-05-31T23:38:05.336Z,84.04
2019-05-31T23:40:33.917Z,84.53
2019-05-31T23:42:59.723Z,84.55
2019-05-31T23:45:28.545Z,84.59
2019-05-31T23:47:54.364Z,84.59
2019-05-31T23:50:23.252Z,84.99
2019-05-31T23:52:49.046Z,85.03
2019-05-31T23:55:17.982Z,85.46
2019-05-31T23:57:44.143Z,85.64
